| time (UTC) | temp C | wind direction | speed KPH | gust KPH | rain 1hr cm | rain 24hr cm | rain mn cm | humidity % | barometer mb |
| 20260509134538 | 8 | 190 | 3.2 | 20.9 | 0.03 | 0.64 | 0.61 | 94 | 1008.6 |
| 20260509133021 | 8 | 187 | 4.8 | 14.5 | 0.05 | 0.64 | 0.61 | 94 | 1008.6 |
| 20260509131517 | 8 | 160 | 3.2 | 16.1 | 0.05 | 0.64 | 0.61 | 95 | 1008.6 |
| 20260509130014 | 8 | 178 | 3.2 | 12.9 | 0.03 | 0.61 | 0.58 | 94 | 1008.6 |
| 20260509124513 | 8 | 177 | 6.4 | 11.3 | 0.08 | 0.61 | 0.58 | 94 | 1008.7 |
| 20260509123012 | 8 | 192 | 1.6 | 8.0 | 0.10 | 0.58 | 0.56 | 95 | 1008.7 |
| 20260509121522 | 8 | 235 | 8.0 | 16.1 | 0.15 | 0.58 | 0.56 | 95 | 1008.9 |
| 20260509120010 | 8 | 180 | 6.4 | 17.7 | 0.20 | 0.58 | 0.56 | 95 | 1009.0 |
| 20260509114522 | 8 | 142 | 3.2 | 12.9 | 0.18 | 0.53 | 0.51 | 95 | 1009.2 |
| 20260509113012 | 8 | 182 | 4.8 | 16.1 | 0.18 | 0.48 | 0.46 | 95 | 1009.2 |
| 20260509111504 | 8 | 183 | 4.8 | 12.9 | 0.15 | 0.43 | 0.41 | 95 | 1009.3 |
| 20260509110002 | 8 | 180 | 4.8 | 12.9 | 0.15 | 0.38 | 0.36 | 95 | 1009.2 |
| 20260509104600 | 8 | 188 | 1.6 | 8.0 | 0.15 | 0.36 | 0.33 | 95 | 1009.2 |
| 20260509103105 | 8 | 204 | 1.6 | 8.0 | 0.13 | 0.30 | 0.28 | 95 | 1009.1 |
| 20260509101623 | 7 | 198 | 1.6 | 9.7 | 0.13 | 0.28 | 0.25 | 94 | 1008.9 |
| 20260509100058 | 7 | 214 | 4.8 | 6.4 | 0.08 | 0.23 | 0.20 | 94 | 1008.7 |
| 20260509094603 | 7 | 154 | 3.2 | 8.0 | 0.05 | 0.20 | 0.18 | 94 | 1009.0 |
| 20260509093104 | 7 | 173 | 3.2 | 8.0 | 0.03 | 0.18 | 0.15 | 94 | 1009.2 |
| 20260509091553 | 7 | 264 | 8.0 | 16.1 | 0.03 | 0.15 | 0.13 | 94 | 1009.1 |
| 20260509090100 | 7 | 195 | 6.4 | 12.9 | 0.03 | 0.15 | 0.13 | 94 | 1009.2 |
| 20260509084548 | 7 | 165 | 3.2 | 11.3 | 0.03 | 0.15 | 0.13 | 94 | 1009.1 |
| 20260509083046 | 7 | 162 | 0.0 | 8.0 | 0.03 | 0.15 | 0.13 | 94 | 1009.1 |
| 20260509081546 | 7 | 169 | 3.2 | 8.0 | 0.00 | 0.13 | 0.10 | 94 | 1009.3 |
| 20260509080042 | 7 | 167 | 1.6 | 4.8 | 0.00 | 0.13 | 0.10 | 94 | 1009.4 |
| 20260509074546 | 8 | 217 | 0.0 | 4.8 | 0.00 | 0.13 | 0.10 | 94 | 1009.6 |
| 20260509073045 | 8 | 200 | 1.6 | 6.4 | 0.00 | 0.13 | 0.10 | 94 | 1009.8 |
| 20260509071545 | 8 | 176 | 1.6 | 4.8 | 0.00 | 0.13 | 0.10 | 94 | 1009.7 |
| 20260509070036 | 8 | 209 | 3.2 | 8.0 | 0.00 | 0.13 | 0.10 | 94 | 1009.9 |
| 20260509064541 | 8 | 220 | 3.2 | 6.4 | 0.03 | 0.13 | 0.10 | 93 | 1010.1 |
| 20260509063031 | 8 | 263 | 3.2 | 6.4 | 0.08 | 0.13 | 0.10 | 93 | 1010.4 |
| 20260509061528 | 8 | 225 | 3.2 | 8.0 | 0.10 | 0.13 | 0.10 | 93 | 1010.3 |
| 20260509060035 | 8 | 169 | 3.2 | 8.0 | 0.10 | 0.13 | 0.10 | 92 | 1010.3 |
| 20260509054527 | 8 | 169 | 4.8 | 8.0 | 0.08 | 0.10 | 0.08 | 92 | 1010.6 |
| 20260509053023 | 8 | 193 | 4.8 | 11.3 | 0.03 | 0.05 | 0.03 | 90 | 1010.8 |
| 20260509051521 | 8 | 217 | 3.2 | 12.9 | 0.00 | 0.03 | 0.00 | 89 | 1010.9 |
| 20260509050020 | 8 | 211 | 6.4 | 17.7 | 0.00 | 0.03 | 0.00 | 87 | 1011.0 |
| 20260509044516 | 8 | 212 | 3.2 | 8.0 | 0.00 | 0.03 | 0.00 | 87 | 1010.8 |
| 20260509043014 | 8 | 239 | 4.8 | 8.0 | 0.00 | 0.03 | 0.00 | 86 | 1010.8 |
| 20260509041511 | 8 | 193 | 3.2 | 6.4 | 0.00 | 0.03 | 0.00 | 84 | 1010.6 |
| 20260509040008 | 8 | 190 | 1.6 | 11.3 | 0.00 | 0.03 | 0.00 | 84 | 1010.7 |
| 20260509034507 | 8 | 268 | 3.2 | 14.5 | 0.00 | 0.03 | 0.03 | 84 | 1010.8 |
| 20260509033007 | 8 | 227 | 3.2 | 11.3 | 0.00 | 0.03 | 0.03 | 84 | 1010.8 |
| 20260509031506 | 8 | 202 | 3.2 | 8.0 | 0.00 | 0.03 | 0.03 | 84 | 1010.9 |
| 20260509030006 | 8 | 206 | 3.2 | 9.7 | 0.00 | 0.03 | 0.03 | 84 | 1010.8 |
| 20260509024507 | 8 | 205 | 1.6 | 8.0 | 0.00 | 0.05 | 0.03 | 84 | 1010.8 |
| 20260509023005 | 8 | 227 | 0.0 | 4.8 | 0.00 | 0.05 | 0.03 | 82 | 1010.9 |
| 20260509021505 | 8 | 202 | 1.6 | 6.4 | 0.00 | 0.05 | 0.03 | 81 | 1010.9 |
| 20260509020010 | 8 | 211 | 3.2 | 9.7 | 0.00 | 0.05 | 0.03 | 79 | 1010.8 |
| 20260509014506 | 9 | 150 | 1.6 | 6.4 | 0.00 | 0.05 | 0.03 | 77 | 1010.7 |
| 20260509013008 | 9 | 180 | 1.6 | 11.3 | 0.00 | 0.05 | 0.03 | 75 | 1010.6 |
| 20260509011502 | 10 | 171 | 1.6 | 6.4 | 0.00 | 0.05 | 0.03 | 73 | 1010.6 |
| 20260509010002 | 10 | 166 | 3.2 | 8.0 | 0.00 | 0.05 | 0.03 | 71 | 1010.3 |
| 20260509004600 | 10 | 177 | 1.6 | 9.7 | 0.00 | 0.05 | 0.03 | 66 | 1010.3 |
| 20260509003102 | 11 | 188 | 3.2 | 8.0 | 0.00 | 0.05 | 0.03 | 64 | 1010.1 |
| 20260509001600 | 11 | 144 | 3.2 | 6.4 | 0.00 | 0.05 | 0.03 | 62 | 1010.0 |
| 20260509000118 | 11 | 169 | 3.2 | 8.0 | 0.00 | 0.05 | 0.03 | 62 | 1009.9 |
| 20260509000001 | 11 | 152 | 3.2 | 8.0 | 0.00 | 0.05 | 0.03 | 62 | 1009.9 |
| 20260508234558 | 11 | 155 | 4.8 | 8.0 | 0.00 | 0.05 | 0.03 | 60 | 1009.8 |
| 20260508233115 | 11 | 153 | 1.6 | 4.8 | 0.00 | 0.05 | 0.03 | 59 | 1009.8 |
| 20260508231557 | 11 | 20 | 0.0 | 1.6 | 0.00 | 0.05 | 0.03 | 59 | 1009.6 |
| 20260508230100 | 11 | 20 | 0.0 | 3.2 | 0.00 | 0.05 | 0.03 | 55 | 1009.6 |
| 20260508224555 | 11 | 347 | 3.2 | 6.4 | 0.00 | 0.05 | 0.03 | 55 | 1009.7 |
| 20260508223056 | 12 | 360 | 4.8 | 12.9 | 0.00 | 0.05 | 0.03 | 54 | 1009.6 |
| 20260508221555 | 12 | 11 | 8.0 | 12.9 | 0.00 | 0.05 | 0.03 | 53 | 1009.5 |
| 20260508220055 | 13 | 355 | 8.0 | 12.9 | 0.00 | 0.05 | 0.03 | 47 | 1009.5 |
| 20260508214553 | 13 | 22 | 3.2 | 12.9 | 0.00 | 0.05 | 0.03 | 48 | 1009.5 |
| 20260508213052 | 13 | 340 | 6.4 | 17.7 | 0.00 | 0.05 | 0.03 | 51 | 1009.5 |
| 20260508211553 | 13 | 201 | 3.2 | 16.1 | 0.00 | 0.05 | 0.03 | 49 | 1009.7 |
| 20260508210049 | 13 | 349 | 9.7 | 17.7 | 0.00 | 0.05 | 0.03 | 53 | 1009.8 |
| 20260508204551 | 12 | 263 | 3.2 | 17.7 | 0.00 | 0.05 | 0.03 | 54 | 1010.1 |
| 20260508203042 | 12 | 312 | 8.0 | 17.7 | 0.00 | 0.05 | 0.03 | 52 | 1010.2 |
| 20260508201540 | 11 | 35 | 8.0 | 16.1 | 0.00 | 0.05 | 0.03 | 56 | 1010.4 |
| 20260508200052 | 11 | 5 | 12.9 | 16.1 | 0.00 | 0.05 | 0.03 | 57 | 1010.5 |
| 20260508194538 | 11 | 337 | 4.8 | 17.7 | 0.00 | 0.05 | 0.03 | 54 | 1010.6 |
| 20260508193041 | 12 | 301 | 6.4 | 19.3 | 0.00 | 0.05 | 0.03 | 55 | 1010.8 |
| 20260508191534 | 11 | 297 | 8.0 | 27.4 | 0.00 | 0.05 | 0.03 | 53 | 1010.9 |
| 20260508190031 | 11 | 211 | 9.7 | 19.3 | 0.00 | 0.05 | 0.03 | 54 | 1011.1 |
| 20260508184528 | 10 | 47 | 9.7 | 16.1 | 0.00 | 0.05 | 0.03 | 59 | 1011.2 |
| 20260508183026 | 10 | 15 | 8.0 | 20.9 | 0.00 | 0.05 | 0.03 | 57 | 1011.4 |
| 20260508181531 | 10 | 22 | 8.0 | 25.7 | 0.00 | 0.05 | 0.03 | 62 | 1011.4 |
| 20260508180024 | 10 | 313 | 9.7 | 19.3 | 0.00 | 0.05 | 0.03 | 63 | 1011.7 |
| 20260508174521 | 10 | 304 | 11.3 | 29.0 | 0.00 | 0.05 | 0.03 | 67 | 1011.8 |
| 20260508173021 | 9 | 325 | 8.0 | 27.4 | 0.00 | 0.05 | 0.03 | 69 | 1011.9 |
| 20260508171519 | 9 | 336 | 16.1 | 22.5 | 0.00 | 0.05 | 0.03 | 70 | 1011.8 |
| 20260508170017 | 8 | 278 | 12.9 | 19.3 | 0.00 | 0.05 | 0.03 | 68 | 1012.0 |
| 20260508164515 | 8 | 332 | 9.7 | 24.1 | 0.00 | 0.05 | 0.03 | 71 | 1012.1 |
| 20260508163016 | 8 | 360 | 6.4 | 19.3 | 0.00 | 0.05 | 0.03 | 77 | 1012.2 |
| 20260508161512 | 8 | 54 | 8.0 | 22.5 | 0.00 | 0.05 | 0.03 | 74 | 1012.2 |
| 20260508160008 | 8 | 271 | 12.9 | 22.5 | 0.00 | 0.05 | 0.03 | 72 | 1012.2 |
| 20260508154504 | 7 | 340 | 6.4 | 17.7 | 0.00 | 0.05 | 0.03 | 78 | 1012.1 |
| 20260508153100 | 6 | 301 | 11.3 | 19.3 | 0.00 | 0.05 | 0.03 | 80 | 1011.9 |
| 20260508151605 | 6 | 355 | 8.0 | 17.7 | 0.00 | 0.05 | 0.03 | 81 | 1012.3 |
| 20260508150055 | 6 | 28 | 6.4 | 14.5 | 0.00 | 0.05 | 0.03 | 78 | 1012.0 |
| 20260508144607 | 6 | 31 | 4.8 | 11.3 | 0.00 | 0.05 | 0.03 | 79 | 1011.8 |
| 20260508143058 | 6 | 325 | 6.4 | 14.5 | 0.00 | 0.05 | 0.03 | 82 | 1011.7 |
| 20260508141554 | 6 | 324 | 4.8 | 12.9 | 0.00 | 0.05 | 0.03 | 81 | 1011.8 |
| 20260508140049 | 6 | 276 | 3.2 | 9.7 | 0.03 | 0.05 | 0.03 | 81 | 1011.5 |